sensor_id;sensor_type;location;lat;lon;timestamp;P1;durP1;ratioP1;P2;durP2;ratioP2
64467;SDS011;50853;46.836;16.820;2023-12-04T00:01:29;5.00;;;2.65;;
64467;SDS011;50853;46.836;16.820;2023-12-04T00:03:54;3.78;;;2.55;;
64467;SDS011;50853;46.836;16.820;2023-12-04T00:06:20;3.42;;;2.58;;
64467;SDS011;50853;46.836;16.820;2023-12-04T00:08:46;4.45;;;3.00;;
64467;SDS011;50853;46.836;16.820;2023-12-04T00:11:12;5.55;;;3.08;;
64467;SDS011;50853;46.836;16.820;2023-12-04T00:13:38;5.05;;;2.90;;
64467;SDS011;50853;46.836;16.820;2023-12-04T00:16:04;4.60;;;3.03;;
64467;SDS011;50853;46.836;16.820;2023-12-04T00:18:31;3.92;;;2.65;;
64467;SDS011;50853;46.836;16.820;2023-12-04T00:20:57;3.92;;;2.70;;
64467;SDS011;50853;46.836;16.820;2023-12-04T00:23:23;5.43;;;3.03;;
64467;SDS011;50853;46.836;16.820;2023-12-04T00:25:48;4.53;;;2.90;;
64467;SDS011;50853;46.836;16.820;2023-12-04T00:28:14;5.05;;;2.97;;
64467;SDS011;50853;46.836;16.820;2023-12-04T00:30:41;3.95;;;2.58;;
64467;SDS011;50853;46.836;16.820;2023-12-04T00:33:07;4.88;;;2.83;;
64467;SDS011;50853;46.836;16.820;2023-12-04T00:35:32;4.68;;;2.83;;
64467;SDS011;50853;46.836;16.820;2023-12-04T00:37:58;4.05;;;2.60;;
64467;SDS011;50853;46.836;16.820;2023-12-04T00:40:24;4.72;;;2.90;;
64467;SDS011;50853;46.836;16.820;2023-12-04T00:42:50;4.18;;;2.90;;
64467;SDS011;50853;46.836;16.820;2023-12-04T00:45:16;3.95;;;2.88;;
64467;SDS011;50853;46.836;16.820;2023-12-04T00:47:42;4.40;;;3.10;;
64467;SDS011;50853;46.836;16.820;2023-12-04T00:50:07;4.07;;;2.90;;
64467;SDS011;50853;46.836;16.820;2023-12-04T00:52:33;4.50;;;2.75;;
64467;SDS011;50853;46.836;16.820;2023-12-04T00:54:59;4.65;;;2.83;;
64467;SDS011;50853;46.836;16.820;2023-12-04T00:57:25;6.10;;;3.70;;
64467;SDS011;50853;46.836;16.820;2023-12-04T00:59:51;3.72;;;2.80;;
64467;SDS011;50853;46.836;16.820;2023-12-04T01:02:17;4.05;;;2.55;;
64467;SDS011;50853;46.836;16.820;2023-12-04T01:04:43;4.53;;;2.88;;
64467;SDS011;50853;46.836;16.820;2023-12-04T01:07:08;3.80;;;2.65;;
64467;SDS011;50853;46.836;16.820;2023-12-04T01:09:37;4.85;;;2.78;;
64467;SDS011;50853;46.836;16.820;2023-12-04T01:12:03;3.60;;;2.50;;
64467;SDS011;50853;46.836;16.820;2023-12-04T01:14:30;4.85;;;2.85;;
64467;SDS011;50853;46.836;16.820;2023-12-04T01:16:56;4.80;;;2.97;;
64467;SDS011;50853;46.836;16.820;2023-12-04T01:19:22;4.53;;;2.42;;
64467;SDS011;50853;46.836;16.820;2023-12-04T01:21:47;3.90;;;2.63;;
64467;SDS011;50853;46.836;16.820;2023-12-04T01:24:14;4.35;;;2.75;;
64467;SDS011;50853;46.836;16.820;2023-12-04T01:26:40;3.88;;;2.53;;
64467;SDS011;50853;46.836;16.820;2023-12-04T01:29:06;3.85;;;2.55;;
64467;SDS011;50853;46.836;16.820;2023-12-04T01:31:32;3.75;;;2.63;;
64467;SDS011;50853;46.836;16.820;2023-12-04T01:33:58;4.57;;;2.90;;
64467;SDS011;50853;46.836;16.820;2023-12-04T01:36:24;4.05;;;2.67;;
64467;SDS011;50853;46.836;16.820;2023-12-04T01:38:50;4.05;;;2.55;;
64467;SDS011;50853;46.836;16.820;2023-12-04T01:41:15;5.07;;;2.90;;
64467;SDS011;50853;46.836;16.820;2023-12-04T01:43:41;4.68;;;3.13;;
64467;SDS011;50853;46.836;16.820;2023-12-04T01:46:07;3.92;;;2.70;;
64467;SDS011;50853;46.836;16.820;2023-12-04T01:48:34;3.42;;;2.38;;
64467;SDS011;50853;46.836;16.820;2023-12-04T01:53:28;4.45;;;2.50;;
64467;SDS011;50853;46.836;16.820;2023-12-04T01:55:57;3.67;;;2.55;;
64467;SDS011;50853;46.836;16.820;2023-12-04T01:58:23;3.97;;;2.80;;
64467;SDS011;50853;46.836;16.820;2023-12-04T02:00:49;4.22;;;2.80;;
64467;SDS011;50853;46.836;16.820;2023-12-04T02:03:15;4.47;;;2.47;;
64467;SDS011;50853;46.836;16.820;2023-12-04T02:05:41;4.22;;;2.65;;
64467;SDS011;50853;46.836;16.820;2023-12-04T02:08:09;3.65;;;2.58;;
64467;SDS011;50853;46.836;16.820;2023-12-04T02:10:36;3.28;;;2.42;;
64467;SDS011;50853;46.836;16.820;2023-12-04T02:13:02;4.10;;;2.30;;
64467;SDS011;50853;46.836;16.820;2023-12-04T02:15:28;4.43;;;2.70;;
64467;SDS011;50853;46.836;16.820;2023-12-04T02:17:54;4.55;;;2.72;;
64467;SDS011;50853;46.836;16.820;2023-12-04T02:20:20;3.72;;;2.70;;
64467;SDS011;50853;46.836;16.820;2023-12-04T02:22:46;3.55;;;2.40;;
64467;SDS011;50853;46.836;16.820;2023-12-04T02:25:12;3.67;;;2.33;;
64467;SDS011;50853;46.836;16.820;2023-12-04T02:27:40;4.88;;;2.80;;
64467;SDS011;50853;46.836;16.820;2023-12-04T02:30:22;3.53;;;2.38;;
64467;SDS011;50853;46.836;16.820;2023-12-04T02:32:49;3.90;;;2.60;;
64467;SDS011;50853;46.836;16.820;2023-12-04T02:35:20;3.13;;;2.15;;
64467;SDS011;50853;46.836;16.820;2023-12-04T02:37:49;4.13;;;2.70;;
64467;SDS011;50853;46.836;16.820;2023-12-04T02:40:15;3.35;;;2.30;;
64467;SDS011;50853;46.836;16.820;2023-12-04T02:42:41;3.22;;;2.42;;
64467;SDS011;50853;46.836;16.820;2023-12-04T02:45:07;3.92;;;2.58;;
64467;SDS011;50853;46.836;16.820;2023-12-04T02:47:33;4.07;;;2.35;;
64467;SDS011;50853;46.836;16.820;2023-12-04T02:49:58;4.53;;;2.67;;
64467;SDS011;50853;46.836;16.820;2023-12-04T02:52:24;4.20;;;2.65;;
64467;SDS011;50853;46.836;16.820;2023-12-04T02:54:50;4.07;;;2.80;;
64467;SDS011;50853;46.836;16.820;2023-12-04T02:57:16;4.30;;;2.83;;
64467;SDS011;50853;46.836;16.820;2023-12-04T02:59:42;4.57;;;2.65;;
64467;SDS011;50853;46.836;16.820;2023-12-04T03:02:08;3.50;;;2.63;;
64467;SDS011;50853;46.836;16.820;2023-12-04T03:04:34;4.00;;;2.50;;
64467;SDS011;50853;46.836;16.820;2023-12-04T03:07:00;3.93;;;2.43;;
64467;SDS011;50853;46.836;16.820;2023-12-04T03:09:26;4.45;;;2.75;;
64467;SDS011;50853;46.836;16.820;2023-12-04T03:11:52;4.03;;;2.65;;
64467;SDS011;50853;46.836;16.820;2023-12-04T03:14:17;4.13;;;2.83;;
64467;SDS011;50853;46.836;16.820;2023-12-04T03:16:44;3.65;;;2.38;;
64467;SDS011;50853;46.836;16.820;2023-12-04T03:19:10;3.88;;;2.60;;
64467;SDS011;50853;46.836;16.820;2023-12-04T03:21:35;4.25;;;2.70;;
64467;SDS011;50853;46.836;16.820;2023-12-04T03:24:01;3.97;;;2.38;;
64467;SDS011;50853;46.836;16.820;2023-12-04T03:26:27;4.38;;;2.60;;
64467;SDS011;50853;46.836;16.820;2023-12-04T03:28:53;3.67;;;2.63;;
64467;SDS011;50853;46.836;16.820;2023-12-04T03:31:19;4.57;;;2.95;;
64467;SDS011;50853;46.836;16.820;2023-12-04T03:33:46;4.57;;;3.10;;
64467;SDS011;50853;46.836;16.820;2023-12-04T03:36:12;3.72;;;2.63;;
64467;SDS011;50853;46.836;16.820;2023-12-04T03:38:38;4.03;;;2.70;;
64467;SDS011;50853;46.836;16.820;2023-12-04T03:41:03;3.50;;;2.42;;
64467;SDS011;50853;46.836;16.820;2023-12-04T03:43:29;3.75;;;2.67;;
64467;SDS011;50853;46.836;16.820;2023-12-04T03:45:55;4.95;;;2.88;;
64467;SDS011;50853;46.836;16.820;2023-12-04T03:48:21;4.15;;;2.97;;
64467;SDS011;50853;46.836;16.820;2023-12-04T03:50:47;3.55;;;2.53;;
64467;SDS011;50853;46.836;16.820;2023-12-04T03:53:15;3.97;;;2.58;;
64467;SDS011;50853;46.836;16.820;2023-12-04T03:55:44;3.70;;;2.53;;
64467;SDS011;50853;46.836;16.820;2023-12-04T03:58:10;4.10;;;2.83;;
64467;SDS011;50853;46.836;16.820;2023-12-04T04:00:36;3.40;;;2.55;;
64467;SDS011;50853;46.836;16.820;2023-12-04T04:03:06;5.75;;;2.53;;
64467;SDS011;50853;46.836;16.820;2023-12-04T04:05:33;4.28;;;2.70;;
64467;SDS011;50853;46.836;16.820;2023-12-04T04:07:59;3.83;;;2.47;;
64467;SDS011;50853;46.836;16.820;2023-12-04T04:10:25;4.82;;;2.83;;
64467;SDS011;50853;46.836;16.820;2023-12-04T04:12:51;4.68;;;2.92;;
64467;SDS011;50853;46.836;16.820;2023-12-04T04:15:17;4.90;;;3.17;;
64467;SDS011;50853;46.836;16.820;2023-12-04T04:17:42;3.88;;;2.95;;
64467;SDS011;50853;46.836;16.820;2023-12-04T04:20:08;5.78;;;2.90;;
64467;SDS011;50853;46.836;16.820;2023-12-04T04:22:36;4.00;;;2.70;;
64467;SDS011;50853;46.836;16.820;2023-12-04T04:25:05;4.45;;;2.30;;
64467;SDS011;50853;46.836;16.820;2023-12-04T04:27:32;3.70;;;2.60;;
64467;SDS011;50853;46.836;16.820;2023-12-04T04:29:58;5.13;;;3.10;;
64467;SDS011;50853;46.836;16.820;2023-12-04T04:32:24;3.53;;;2.58;;
64467;SDS011;50853;46.836;16.820;2023-12-04T04:34:50;3.78;;;2.72;;
64467;SDS011;50853;46.836;16.820;2023-12-04T04:37:16;4.93;;;2.72;;
64467;SDS011;50853;46.836;16.820;2023-12-04T04:39:42;4.25;;;2.88;;
64467;SDS011;50853;46.836;16.820;2023-12-04T04:42:08;4.20;;;2.85;;
64467;SDS011;50853;46.836;16.820;2023-12-04T04:44:33;3.75;;;2.70;;
64467;SDS011;50853;46.836;16.820;2023-12-04T04:46:59;4.57;;;2.95;;
64467;SDS011;50853;46.836;16.820;2023-12-04T04:49:25;4.65;;;2.70;;
64467;SDS011;50853;46.836;16.820;2023-12-04T04:51:51;4.60;;;3.08;;
64467;SDS011;50853;46.836;16.820;2023-12-04T04:54:17;3.80;;;2.70;;
64467;SDS011;50853;46.836;16.820;2023-12-04T04:56:43;4.38;;;2.88;;
64467;SDS011;50853;46.836;16.820;2023-12-04T04:59:08;4.28;;;2.90;;
64467;SDS011;50853;46.836;16.820;2023-12-04T05:01:34;4.43;;;3.03;;
64467;SDS011;50853;46.836;16.820;2023-12-04T05:04:01;4.43;;;2.72;;
64467;SDS011;50853;46.836;16.820;2023-12-04T05:06:27;4.40;;;2.92;;
64467;SDS011;50853;46.836;16.820;2023-12-04T05:08:53;5.30;;;2.95;;
64467;SDS011;50853;46.836;16.820;2023-12-04T05:11:19;4.30;;;2.83;;
64467;SDS011;50853;46.836;16.820;2023-12-04T05:13:45;3.75;;;2.65;;
64467;SDS011;50853;46.836;16.820;2023-12-04T05:16:11;4.80;;;3.00;;
64467;SDS011;50853;46.836;16.820;2023-12-04T05:18:38;4.07;;;2.60;;
64467;SDS011;50853;46.836;16.820;2023-12-04T05:21:13;4.70;;;2.80;;
64467;SDS011;50853;46.836;16.820;2023-12-04T05:23:39;5.00;;;2.80;;
64467;SDS011;50853;46.836;16.820;2023-12-04T05:26:05;4.72;;;2.83;;
64467;SDS011;50853;46.836;16.820;2023-12-04T05:28:31;3.78;;;2.60;;
64467;SDS011;50853;46.836;16.820;2023-12-04T05:30:58;3.72;;;2.60;;
64467;SDS011;50853;46.836;16.820;2023-12-04T05:33:24;4.60;;;3.10;;
64467;SDS011;50853;46.836;16.820;2023-12-04T05:35:49;5.20;;;3.10;;
64467;SDS011;50853;46.836;16.820;2023-12-04T05:38:19;4.57;;;3.10;;
64467;SDS011;50853;46.836;16.820;2023-12-04T05:40:45;4.25;;;2.72;;
64467;SDS011;50853;46.836;16.820;2023-12-04T05:43:11;5.20;;;3.25;;
64467;SDS011;50853;46.836;16.820;2023-12-04T05:45:36;4.70;;;3.17;;
64467;SDS011;50853;46.836;16.820;2023-12-04T05:48:03;4.80;;;3.08;;
64467;SDS011;50853;46.836;16.820;2023-12-04T05:50:29;5.35;;;3.20;;
64467;SDS011;50853;46.836;16.820;2023-12-04T05:52:55;4.68;;;3.15;;
64467;SDS011;50853;46.836;16.820;2023-12-04T05:55:21;3.72;;;2.65;;
64467;SDS011;50853;46.836;16.820;2023-12-04T05:57:47;4.75;;;3.05;;
64467;SDS011;50853;46.836;16.820;2023-12-04T06:00:13;4.88;;;3.30;;
64467;SDS011;50853;46.836;16.820;2023-12-04T06:02:39;5.40;;;3.08;;
64467;SDS011;50853;46.836;16.820;2023-12-04T06:07:33;4.18;;;2.97;;
64467;SDS011;50853;46.836;16.820;2023-12-04T06:09:59;4.20;;;2.83;;
64467;SDS011;50853;46.836;16.820;2023-12-04T06:12:25;4.88;;;3.10;;
64467;SDS011;50853;46.836;16.820;2023-12-04T06:14:51;4.68;;;3.30;;
64467;SDS011;50853;46.836;16.820;2023-12-04T06:17:17;5.20;;;3.38;;
64467;SDS011;50853;46.836;16.820;2023-12-04T06:19:42;3.70;;;2.83;;
64467;SDS011;50853;46.836;16.820;2023-12-04T06:22:08;4.28;;;3.10;;
64467;SDS011;50853;46.836;16.820;2023-12-04T06:24:34;5.80;;;3.35;;
64467;SDS011;50853;46.836;16.820;2023-12-04T06:27:01;6.10;;;3.30;;
64467;SDS011;50853;46.836;16.820;2023-12-04T06:29:27;4.60;;;3.25;;
64467;SDS011;50853;46.836;16.820;2023-12-04T06:31:53;4.90;;;3.60;;
64467;SDS011;50853;46.836;16.820;2023-12-04T06:34:19;5.45;;;3.53;;
64467;SDS011;50853;46.836;16.820;2023-12-04T06:36:45;4.43;;;3.22;;
64467;SDS011;50853;46.836;16.820;2023-12-04T06:39:12;4.63;;;3.30;;
64467;SDS011;50853;46.836;16.820;2023-12-04T06:41:41;5.03;;;3.20;;
64467;SDS011;50853;46.836;16.820;2023-12-04T06:44:08;5.90;;;3.47;;
64467;SDS011;50853;46.836;16.820;2023-12-04T06:46:37;4.87;;;3.17;;
64467;SDS011;50853;46.836;16.820;2023-12-04T06:49:05;3.85;;;2.80;;
64467;SDS011;50853;46.836;16.820;2023-12-04T06:51:34;5.10;;;3.30;;
64467;SDS011;50853;46.836;16.820;2023-12-04T06:54:00;4.65;;;3.10;;
64467;SDS011;50853;46.836;16.820;2023-12-04T06:56:25;5.50;;;3.42;;
64467;SDS011;50853;46.836;16.820;2023-12-04T06:58:51;6.07;;;3.78;;
64467;SDS011;50853;46.836;16.820;2023-12-04T07:01:17;4.95;;;3.25;;
64467;SDS011;50853;46.836;16.820;2023-12-04T07:03:43;4.95;;;3.63;;
64467;SDS011;50853;46.836;16.820;2023-12-04T07:06:09;4.68;;;3.28;;
64467;SDS011;50853;46.836;16.820;2023-12-04T07:08:35;4.15;;;2.83;;
64467;SDS011;50853;46.836;16.820;2023-12-04T07:11:01;5.10;;;3.80;;
64467;SDS011;50853;46.836;16.820;2023-12-04T07:13:27;5.28;;;3.20;;
64467;SDS011;50853;46.836;16.820;2023-12-04T07:15:53;5.40;;;3.83;;
64467;SDS011;50853;46.836;16.820;2023-12-04T07:18:19;5.25;;;3.40;;
64467;SDS011;50853;46.836;16.820;2023-12-04T07:20:45;5.00;;;3.42;;
64467;SDS011;50853;46.836;16.820;2023-12-04T07:23:11;5.45;;;3.22;;
64467;SDS011;50853;46.836;16.820;2023-12-04T07:25:36;5.53;;;3.28;;
64467;SDS011;50853;46.836;16.820;2023-12-04T07:28:02;4.85;;;3.25;;
64467;SDS011;50853;46.836;16.820;2023-12-04T07:30:28;4.68;;;3.55;;
64467;SDS011;50853;46.836;16.820;2023-12-04T07:32:54;4.72;;;3.17;;
64467;SDS011;50853;46.836;16.820;2023-12-04T07:35:20;5.97;;;4.00;;
64467;SDS011;50853;46.836;16.820;2023-12-04T07:37:46;4.55;;;3.45;;
64467;SDS011;50853;46.836;16.820;2023-12-04T07:40:12;5.07;;;3.58;;
64467;SDS011;50853;46.836;16.820;2023-12-04T07:42:38;5.10;;;3.22;;
64467;SDS011;50853;46.836;16.820;2023-12-04T07:45:04;5.85;;;3.80;;
64467;SDS011;50853;46.836;16.820;2023-12-04T07:47:30;5.93;;;3.90;;
64467;SDS011;50853;46.836;16.820;2023-12-04T07:49:56;5.20;;;3.67;;
64467;SDS011;50853;46.836;16.820;2023-12-04T07:52:22;4.80;;;3.47;;
64467;SDS011;50853;46.836;16.820;2023-12-04T07:54:47;6.45;;;3.67;;
64467;SDS011;50853;46.836;16.820;2023-12-04T07:57:13;5.00;;;3.50;;
64467;SDS011;50853;46.836;16.820;2023-12-04T07:59:39;6.70;;;4.20;;
64467;SDS011;50853;46.836;16.820;2023-12-04T08:02:05;6.10;;;4.00;;
64467;SDS011;50853;46.836;16.820;2023-12-04T08:04:31;5.53;;;3.83;;
64467;SDS011;50853;46.836;16.820;2023-12-04T08:06:56;5.00;;;3.63;;
64467;SDS011;50853;46.836;16.820;2023-12-04T08:09:22;5.65;;;3.67;;
64467;SDS011;50853;46.836;16.820;2023-12-04T08:11:48;6.68;;;4.13;;
64467;SDS011;50853;46.836;16.820;2023-12-04T08:14:14;5.97;;;3.85;;
64467;SDS011;50853;46.836;16.820;2023-12-04T08:16:41;5.47;;;3.35;;
64467;SDS011;50853;46.836;16.820;2023-12-04T08:19:07;6.47;;;3.75;;
64467;SDS011;50853;46.836;16.820;2023-12-04T08:21:32;5.38;;;3.47;;
64467;SDS011;50853;46.836;16.820;2023-12-04T08:23:58;6.78;;;4.13;;
64467;SDS011;50853;46.836;16.820;2023-12-04T08:26:25;6.35;;;3.95;;
64467;SDS011;50853;46.836;16.820;2023-12-04T08:28:53;6.78;;;4.40;;
64467;SDS011;50853;46.836;16.820;2023-12-04T08:31:19;5.65;;;4.00;;
64467;SDS011;50853;46.836;16.820;2023-12-04T08:33:45;5.75;;;3.63;;
64467;SDS011;50853;46.836;16.820;2023-12-04T08:36:11;6.85;;;4.00;;
64467;SDS011;50853;46.836;16.820;2023-12-04T08:38:37;5.72;;;3.90;;
64467;SDS011;50853;46.836;16.820;2023-12-04T08:41:04;5.40;;;3.78;;
64467;SDS011;50853;46.836;16.820;2023-12-04T08:43:30;5.95;;;4.07;;
64467;SDS011;50853;46.836;16.820;2023-12-04T08:45:56;9.43;;;3.90;;
64467;SDS011;50853;46.836;16.820;2023-12-04T08:48:22;6.15;;;4.00;;
64467;SDS011;50853;46.836;16.820;2023-12-04T08:50:48;6.07;;;4.28;;
64467;SDS011;50853;46.836;16.820;2023-12-04T08:53:14;5.88;;;3.90;;
64467;SDS011;50853;46.836;16.820;2023-12-04T08:55:40;6.35;;;4.28;;
64467;SDS011;50853;46.836;16.820;2023-12-04T08:58:06;5.55;;;3.88;;
64467;SDS011;50853;46.836;16.820;2023-12-04T09:00:32;5.50;;;3.97;;
64467;SDS011;50853;46.836;16.820;2023-12-04T09:02:58;6.38;;;4.53;;
64467;SDS011;50853;46.836;16.820;2023-12-04T09:05:25;8.25;;;4.90;;
64467;SDS011;50853;46.836;16.820;2023-12-04T09:07:51;6.63;;;4.40;;
64467;SDS011;50853;46.836;16.820;2023-12-04T09:10:18;7.03;;;4.45;;
64467;SDS011;50853;46.836;16.820;2023-12-04T09:12:44;6.43;;;4.28;;
64467;SDS011;50853;46.836;16.820;2023-12-04T09:15:10;6.75;;;4.65;;
64467;SDS011;50853;46.836;16.820;2023-12-04T09:17:36;6.43;;;4.28;;
64467;SDS011;50853;46.836;16.820;2023-12-04T09:20:02;5.80;;;4.00;;
64467;SDS011;50853;46.836;16.820;2023-12-04T09:22:31;6.72;;;4.22;;
64467;SDS011;50853;46.836;16.820;2023-12-04T09:24:57;5.53;;;4.20;;
64467;SDS011;50853;46.836;16.820;2023-12-04T09:27:22;7.30;;;4.68;;
64467;SDS011;50853;46.836;16.820;2023-12-04T09:29:48;6.63;;;4.80;;
64467;SDS011;50853;46.836;16.820;2023-12-04T09:32:14;8.02;;;4.85;;
64467;SDS011;50853;46.836;16.820;2023-12-04T09:34:40;6.78;;;4.70;;
64467;SDS011;50853;46.836;16.820;2023-12-04T09:37:06;7.10;;;4.72;;
64467;SDS011;50853;46.836;16.820;2023-12-04T09:39:32;6.10;;;4.60;;
64467;SDS011;50853;46.836;16.820;2023-12-04T09:41:58;8.30;;;4.97;;
64467;SDS011;50853;46.836;16.820;2023-12-04T09:44:26;7.72;;;5.30;;
64467;SDS011;50853;46.836;16.820;2023-12-04T09:46:54;8.48;;;5.18;;
64467;SDS011;50853;46.836;16.820;2023-12-04T09:49:20;7.65;;;4.32;;
64467;SDS011;50853;46.836;16.820;2023-12-04T09:51:46;5.82;;;4.18;;
64467;SDS011;50853;46.836;16.820;2023-12-04T09:54:12;7.93;;;4.78;;
64467;SDS011;50853;46.836;16.820;2023-12-04T09:56:42;7.30;;;5.00;;
64467;SDS011;50853;46.836;16.820;2023-12-04T09:59:09;7.20;;;4.78;;
64467;SDS011;50853;46.836;16.820;2023-12-04T10:01:37;7.22;;;4.65;;
64467;SDS011;50853;46.836;16.820;2023-12-04T10:04:05;6.40;;;4.75;;
64467;SDS011;50853;46.836;16.820;2023-12-04T10:06:33;6.40;;;4.60;;
64467;SDS011;50853;46.836;16.820;2023-12-04T10:09:01;8.15;;;4.60;;
64467;SDS011;50853;46.836;16.820;2023-12-04T10:11:28;6.70;;;4.22;;
64467;SDS011;50853;46.836;16.820;2023-12-04T10:13:55;6.88;;;5.13;;
64467;SDS011;50853;46.836;16.820;2023-12-04T10:16:34;6.70;;;4.70;;
64467;SDS011;50853;46.836;16.820;2023-12-04T10:19:14;7.30;;;4.70;;
64467;SDS011;50853;46.836;16.820;2023-12-04T10:21:46;6.28;;;4.30;;
64467;SDS011;50853;46.836;16.820;2023-12-04T10:24:26;5.95;;;4.05;;
64467;SDS011;50853;46.836;16.820;2023-12-04T10:26:59;7.05;;;4.68;;
64467;SDS011;50853;46.836;16.820;2023-12-04T10:29:29;7.28;;;4.90;;
64467;SDS011;50853;46.836;16.820;2023-12-04T10:32:04;7.68;;;4.90;;
64467;SDS011;50853;46.836;16.820;2023-12-04T10:34:30;6.38;;;4.50;;
64467;SDS011;50853;46.836;16.820;2023-12-04T10:36:59;8.02;;;4.85;;
64467;SDS011;50853;46.836;16.820;2023-12-04T10:39:25;7.88;;;4.68;;
64467;SDS011;50853;46.836;16.820;2023-12-04T10:42:02;7.50;;;4.82;;
64467;SDS011;50853;46.836;16.820;2023-12-04T10:44:32;6.28;;;4.35;;
64467;SDS011;50853;46.836;16.820;2023-12-04T10:46:58;7.03;;;4.55;;
64467;SDS011;50853;46.836;16.820;2023-12-04T10:49:27;8.88;;;5.22;;
64467;SDS011;50853;46.836;16.820;2023-12-04T10:51:56;6.70;;;4.40;;
64467;SDS011;50853;46.836;16.820;2023-12-04T10:54:26;6.75;;;4.60;;
64467;SDS011;50853;46.836;16.820;2023-12-04T10:56:52;6.22;;;4.10;;
64467;SDS011;50853;46.836;16.820;2023-12-04T10:59:21;7.72;;;4.65;;
64467;SDS011;50853;46.836;16.820;2023-12-04T11:01:52;8.30;;;4.75;;
64467;SDS011;50853;46.836;16.820;2023-12-04T11:04:21;7.38;;;5.20;;
64467;SDS011;50853;46.836;16.820;2023-12-04T11:06:52;6.75;;;4.68;;
64467;SDS011;50853;46.836;16.820;2023-12-04T11:09:19;8.05;;;4.85;;
64467;SDS011;50853;46.836;16.820;2023-12-04T11:11:48;6.97;;;4.40;;
64467;SDS011;50853;46.836;16.820;2023-12-04T11:14:19;5.68;;;4.13;;
64467;SDS011;50853;46.836;16.820;2023-12-04T11:16:49;6.93;;;4.60;;
64467;SDS011;50853;46.836;16.820;2023-12-04T11:20:07;7.53;;;4.78;;
64467;SDS011;50853;46.836;16.820;2023-12-04T11:22:15;6.30;;;4.68;;
64467;SDS011;50853;46.836;16.820;2023-12-04T11:24:46;7.63;;;4.95;;
64467;SDS011;50853;46.836;16.820;2023-12-04T11:27:19;8.30;;;5.10;;
64467;SDS011;50853;46.836;16.820;2023-12-04T11:29:46;7.82;;;4.85;;
64467;SDS011;50853;46.836;16.820;2023-12-04T11:32:16;9.98;;;5.03;;
64467;SDS011;50853;46.836;16.820;2023-12-04T11:34:49;7.75;;;4.80;;
64467;SDS011;50853;46.836;16.820;2023-12-04T11:37:17;7.57;;;4.95;;
64467;SDS011;50853;46.836;16.820;2023-12-04T11:39:46;5.88;;;4.32;;
64467;SDS011;50853;46.836;16.820;2023-12-04T11:42:13;6.55;;;4.60;;
64467;SDS011;50853;46.836;16.820;2023-12-04T11:44:43;6.85;;;4.72;;
64467;SDS011;50853;46.836;16.820;2023-12-04T11:47:09;6.35;;;4.35;;
64467;SDS011;50853;46.836;16.820;2023-12-04T11:49:36;6.97;;;4.55;;
64467;SDS011;50853;46.836;16.820;2023-12-04T11:52:03;7.68;;;4.93;;
64467;SDS011;50853;46.836;16.820;2023-12-04T11:54:35;6.35;;;4.40;;
64467;SDS011;50853;46.836;16.820;2023-12-04T11:57:31;7.40;;;4.65;;
64467;SDS011;50853;46.836;16.820;2023-12-04T12:02:40;8.90;;;5.18;;
64467;SDS011;50853;46.836;16.820;2023-12-04T12:05:12;7.40;;;4.82;;
64467;SDS011;50853;46.836;16.820;2023-12-04T12:07:38;6.93;;;4.63;;
64467;SDS011;50853;46.836;16.820;2023-12-04T12:10:04;7.85;;;4.70;;
64467;SDS011;50853;46.836;16.820;2023-12-04T12:12:30;6.78;;;4.57;;
64467;SDS011;50853;46.836;16.820;2023-12-04T12:15:00;9.07;;;4.75;;
64467;SDS011;50853;46.836;16.820;2023-12-04T12:17:26;8.55;;;5.30;;
64467;SDS011;50853;46.836;16.820;2023-12-04T12:19:52;7.30;;;5.43;;
64467;SDS011;50853;46.836;16.820;2023-12-04T12:22:22;7.63;;;4.72;;
64467;SDS011;50853;46.836;16.820;2023-12-04T12:24:48;7.18;;;5.28;;
64467;SDS011;50853;46.836;16.820;2023-12-04T12:27:15;6.43;;;4.53;;
64467;SDS011;50853;46.836;16.820;2023-12-04T12:29:41;7.07;;;4.90;;
64467;SDS011;50853;46.836;16.820;2023-12-04T12:32:07;6.47;;;4.53;;
64467;SDS011;50853;46.836;16.820;2023-12-04T12:34:32;8.35;;;5.00;;
64467;SDS011;50853;46.836;16.820;2023-12-04T12:37:02;8.07;;;4.72;;
64467;SDS011;50853;46.836;16.820;2023-12-04T12:41:55;7.25;;;4.72;;
64467;SDS011;50853;46.836;16.820;2023-12-04T12:44:21;7.38;;;4.63;;
64467;SDS011;50853;46.836;16.820;2023-12-04T12:46:47;7.32;;;4.95;;
64467;SDS011;50853;46.836;16.820;2023-12-04T12:49:17;7.15;;;4.35;;
64467;SDS011;50853;46.836;16.820;2023-12-04T12:51:46;6.63;;;4.53;;
64467;SDS011;50853;46.836;16.820;2023-12-04T12:54:12;7.93;;;4.40;;
64467;SDS011;50853;46.836;16.820;2023-12-04T12:56:38;7.47;;;4.40;;
64467;SDS011;50853;46.836;16.820;2023-12-04T12:59:05;7.37;;;4.87;;
64467;SDS011;50853;46.836;16.820;2023-12-04T13:01:32;7.10;;;4.80;;
64467;SDS011;50853;46.836;16.820;2023-12-04T13:03:58;6.13;;;4.38;;
64467;SDS011;50853;46.836;16.820;2023-12-04T13:06:25;7.97;;;4.60;;
64467;SDS011;50853;46.836;16.820;2023-12-04T13:08:51;7.30;;;4.95;;
64467;SDS011;50853;46.836;16.820;2023-12-04T13:11:17;6.35;;;4.80;;
64467;SDS011;50853;46.836;16.820;2023-12-04T13:13:43;7.07;;;4.53;;
64467;SDS011;50853;46.836;16.820;2023-12-04T13:16:09;6.60;;;4.47;;
64467;SDS011;50853;46.836;16.820;2023-12-04T13:18:35;8.48;;;4.20;;
64467;SDS011;50853;46.836;16.820;2023-12-04T13:21:03;7.32;;;4.70;;
64467;SDS011;50853;46.836;16.820;2023-12-04T13:23:29;6.72;;;4.80;;
64467;SDS011;50853;46.836;16.820;2023-12-04T13:25:55;6.43;;;4.32;;
64467;SDS011;50853;46.836;16.820;2023-12-04T13:28:21;8.30;;;4.93;;
64467;SDS011;50853;46.836;16.820;2023-12-04T13:30:47;8.20;;;4.90;;
64467;SDS011;50853;46.836;16.820;2023-12-04T13:33:13;6.15;;;4.32;;
64467;SDS011;50853;46.836;16.820;2023-12-04T13:35:39;7.32;;;4.95;;
64467;SDS011;50853;46.836;16.820;2023-12-04T13:38:05;6.93;;;4.13;;
64467;SDS011;50853;46.836;16.820;2023-12-04T13:40:38;6.93;;;4.60;;
64467;SDS011;50853;46.836;16.820;2023-12-04T13:43:05;5.90;;;4.10;;
64467;SDS011;50853;46.836;16.820;2023-12-04T13:45:49;7.40;;;4.32;;
64467;SDS011;50853;46.836;16.820;2023-12-04T14:00:24;6.07;;;4.05;;
64467;SDS011;50853;46.836;16.820;2023-12-04T14:02:50;6.83;;;4.13;;
64467;SDS011;50853;46.836;16.820;2023-12-04T14:05:25;7.25;;;4.40;;
64467;SDS011;50853;46.836;16.820;2023-12-04T14:07:51;6.85;;;4.28;;
64467;SDS011;50853;46.836;16.820;2023-12-04T14:10:17;5.93;;;4.07;;
64467;SDS011;50853;46.836;16.820;2023-12-04T14:12:43;7.05;;;4.47;;
64467;SDS011;50853;46.836;16.820;2023-12-04T14:15:09;5.95;;;4.35;;
64467;SDS011;50853;46.836;16.820;2023-12-04T14:17:35;7.57;;;4.30;;
64467;SDS011;50853;46.836;16.820;2023-12-04T14:20:04;5.47;;;4.07;;
64467;SDS011;50853;46.836;16.820;2023-12-04T14:22:37;5.38;;;3.83;;
64467;SDS011;50853;46.836;16.820;2023-12-04T14:25:06;6.50;;;4.13;;
64467;SDS011;50853;46.836;16.820;2023-12-04T14:27:32;6.05;;;3.80;;
64467;SDS011;50853;46.836;16.820;2023-12-04T14:29:58;6.53;;;3.90;;
64467;SDS011;50853;46.836;16.820;2023-12-04T14:32:24;6.35;;;4.10;;
64467;SDS011;50853;46.836;16.820;2023-12-04T14:34:49;5.80;;;3.88;;
64467;SDS011;50853;46.836;16.820;2023-12-04T14:37:15;5.80;;;3.80;;
64467;SDS011;50853;46.836;16.820;2023-12-04T14:39:41;6.30;;;4.20;;
64467;SDS011;50853;46.836;16.820;2023-12-04T14:42:07;6.68;;;3.88;;
64467;SDS011;50853;46.836;16.820;2023-12-04T14:44:32;6.78;;;4.03;;
64467;SDS011;50853;46.836;16.820;2023-12-04T14:46:58;5.63;;;3.90;;
64467;SDS011;50853;46.836;16.820;2023-12-04T14:49:24;6.72;;;4.35;;
64467;SDS011;50853;46.836;16.820;2023-12-04T14:51:50;6.10;;;3.88;;
64467;SDS011;50853;46.836;16.820;2023-12-04T14:54:16;5.35;;;3.70;;